sensor_id;sensor_type;location;lat;lon;timestamp;P1;durP1;ratioP1;P2;durP2;ratioP2
71806;SDS011;59655;42.590;23.364;2023-08-08T00:01:43;1.70;;;1.08;;
71806;SDS011;59655;42.590;23.364;2023-08-08T00:04:09;2.97;;;1.10;;
71806;SDS011;59655;42.590;23.364;2023-08-08T00:06:35;1.85;;;1.00;;
71806;SDS011;59655;42.590;23.364;2023-08-08T00:09:01;4.80;;;1.23;;
71806;SDS011;59655;42.590;23.364;2023-08-08T00:11:26;2.00;;;1.05;;
71806;SDS011;59655;42.590;23.364;2023-08-08T00:13:52;1.63;;;0.90;;
71806;SDS011;59655;42.590;23.364;2023-08-08T00:16:17;2.60;;;1.10;;
71806;SDS011;59655;42.590;23.364;2023-08-08T00:18:43;3.08;;;1.13;;
71806;SDS011;59655;42.590;23.364;2023-08-08T00:21:08;4.22;;;1.17;;
71806;SDS011;59655;42.590;23.364;2023-08-08T00:23:34;2.78;;;1.20;;
71806;SDS011;59655;42.590;23.364;2023-08-08T00:25:59;3.15;;;1.30;;
71806;SDS011;59655;42.590;23.364;2023-08-08T00:28:24;1.58;;;0.93;;
71806;SDS011;59655;42.590;23.364;2023-08-08T00:30:50;2.25;;;1.30;;
71806;SDS011;59655;42.590;23.364;2023-08-08T00:33:15;2.88;;;1.20;;
71806;SDS011;59655;42.590;23.364;2023-08-08T00:35:41;1.95;;;1.00;;
71806;SDS011;59655;42.590;23.364;2023-08-08T00:38:07;2.47;;;1.25;;
71806;SDS011;59655;42.590;23.364;2023-08-08T00:40:33;1.98;;;1.27;;
71806;SDS011;59655;42.590;23.364;2023-08-08T00:42:58;2.60;;;1.23;;
71806;SDS011;59655;42.590;23.364;2023-08-08T00:45:23;2.65;;;1.10;;
71806;SDS011;59655;42.590;23.364;2023-08-08T00:47:49;2.13;;;1.20;;
71806;SDS011;59655;42.590;23.364;2023-08-08T00:50:14;1.98;;;1.25;;
71806;SDS011;59655;42.590;23.364;2023-08-08T00:52:41;2.58;;;1.23;;
71806;SDS011;59655;42.590;23.364;2023-08-08T00:55:08;2.30;;;1.30;;
71806;SDS011;59655;42.590;23.364;2023-08-08T00:57:34;2.45;;;1.30;;
71806;SDS011;59655;42.590;23.364;2023-08-08T01:00:03;2.15;;;1.13;;
71806;SDS011;59655;42.590;23.364;2023-08-08T01:04:56;4.25;;;1.60;;
71806;SDS011;59655;42.590;23.364;2023-08-08T01:10:10;1.92;;;1.25;;
71806;SDS011;59655;42.590;23.364;2023-08-08T01:12:41;2.42;;;1.27;;
71806;SDS011;59655;42.590;23.364;2023-08-08T01:15:10;3.05;;;1.60;;
71806;SDS011;59655;42.590;23.364;2023-08-08T01:17:37;2.28;;;1.50;;
71806;SDS011;59655;42.590;23.364;2023-08-08T01:20:04;3.17;;;1.45;;
71806;SDS011;59655;42.590;23.364;2023-08-08T01:22:43;2.30;;;1.50;;
71806;SDS011;59655;42.590;23.364;2023-08-08T01:25:20;2.90;;;1.40;;
71806;SDS011;59655;42.590;23.364;2023-08-08T01:27:46;2.42;;;1.58;;
71806;SDS011;59655;42.590;23.364;2023-08-08T01:30:12;2.50;;;1.33;;
71806;SDS011;59655;42.590;23.364;2023-08-08T01:32:37;2.40;;;1.40;;
71806;SDS011;59655;42.590;23.364;2023-08-08T01:35:03;2.30;;;1.40;;
71806;SDS011;59655;42.590;23.364;2023-08-08T01:40:19;2.20;;;1.40;;
71806;SDS011;59655;42.590;23.364;2023-08-08T01:42:46;2.15;;;1.30;;
71806;SDS011;59655;42.590;23.364;2023-08-08T01:45:13;2.30;;;1.50;;
71806;SDS011;59655;42.590;23.364;2023-08-08T01:47:42;3.80;;;1.60;;
71806;SDS011;59655;42.590;23.364;2023-08-08T01:50:08;2.03;;;1.40;;
71806;SDS011;59655;42.590;23.364;2023-08-08T01:52:34;2.33;;;1.30;;
71806;SDS011;59655;42.590;23.364;2023-08-08T01:55:00;2.50;;;1.42;;
71806;SDS011;59655;42.590;23.364;2023-08-08T01:57:26;2.80;;;1.67;;
71806;SDS011;59655;42.590;23.364;2023-08-08T01:59:51;2.72;;;1.48;;
71806;SDS011;59655;42.590;23.364;2023-08-08T02:02:17;2.30;;;1.27;;
71806;SDS011;59655;42.590;23.364;2023-08-08T02:04:43;2.60;;;1.45;;
71806;SDS011;59655;42.590;23.364;2023-08-08T02:07:08;2.65;;;1.42;;
71806;SDS011;59655;42.590;23.364;2023-08-08T02:09:34;2.97;;;1.70;;
71806;SDS011;59655;42.590;23.364;2023-08-08T02:11:59;2.70;;;1.60;;
71806;SDS011;59655;42.590;23.364;2023-08-08T02:14:25;2.10;;;1.45;;
71806;SDS011;59655;42.590;23.364;2023-08-08T02:16:50;2.58;;;1.40;;
71806;SDS011;59655;42.590;23.364;2023-08-08T02:19:15;2.50;;;1.52;;
71806;SDS011;59655;42.590;23.364;2023-08-08T02:21:41;2.70;;;1.50;;
71806;SDS011;59655;42.590;23.364;2023-08-08T02:24:06;7.50;;;2.00;;
71806;SDS011;59655;42.590;23.364;2023-08-08T02:26:32;2.35;;;1.60;;
71806;SDS011;59655;42.590;23.364;2023-08-08T02:28:57;2.45;;;1.52;;
71806;SDS011;59655;42.590;23.364;2023-08-08T02:31:23;2.60;;;1.60;;
71806;SDS011;59655;42.590;23.364;2023-08-08T02:33:48;2.83;;;1.80;;
71806;SDS011;59655;42.590;23.364;2023-08-08T02:36:17;3.15;;;1.90;;
71806;SDS011;59655;42.590;23.364;2023-08-08T02:38:43;4.70;;;1.80;;
71806;SDS011;59655;42.590;23.364;2023-08-08T02:41:09;2.90;;;1.85;;
71806;SDS011;59655;42.590;23.364;2023-08-08T02:43:35;2.97;;;1.63;;
71806;SDS011;59655;42.590;23.364;2023-08-08T02:46:00;2.38;;;1.73;;
71806;SDS011;59655;42.590;23.364;2023-08-08T02:48:26;3.03;;;1.85;;
71806;SDS011;59655;42.590;23.364;2023-08-08T02:50:52;2.92;;;1.67;;
71806;SDS011;59655;42.590;23.364;2023-08-08T02:53:17;2.92;;;1.95;;
71806;SDS011;59655;42.590;23.364;2023-08-08T02:55:42;3.85;;;1.85;;
71806;SDS011;59655;42.590;23.364;2023-08-08T02:58:08;3.13;;;1.90;;
71806;SDS011;59655;42.590;23.364;2023-08-08T03:00:33;4.63;;;2.33;;
71806;SDS011;59655;42.590;23.364;2023-08-08T03:02:59;3.15;;;1.95;;
71806;SDS011;59655;42.590;23.364;2023-08-08T03:05:24;3.95;;;2.00;;
71806;SDS011;59655;42.590;23.364;2023-08-08T03:07:49;4.15;;;2.00;;
71806;SDS011;59655;42.590;23.364;2023-08-08T03:10:15;2.47;;;1.88;;
71806;SDS011;59655;42.590;23.364;2023-08-08T03:12:40;3.95;;;2.20;;
71806;SDS011;59655;42.590;23.364;2023-08-08T03:15:06;4.93;;;2.20;;
71806;SDS011;59655;42.590;23.364;2023-08-08T03:17:32;2.60;;;1.90;;
71806;SDS011;59655;42.590;23.364;2023-08-08T03:19:58;2.40;;;1.70;;
71806;SDS011;59655;42.590;23.364;2023-08-08T03:22:23;3.70;;;2.10;;
71806;SDS011;59655;42.590;23.364;2023-08-08T03:24:49;3.20;;;2.40;;
71806;SDS011;59655;42.590;23.364;2023-08-08T03:27:14;4.60;;;2.10;;
71806;SDS011;59655;42.590;23.364;2023-08-08T03:29:40;3.40;;;2.20;;
71806;SDS011;59655;42.590;23.364;2023-08-08T03:32:05;2.90;;;2.08;;
71806;SDS011;59655;42.590;23.364;2023-08-08T03:34:31;3.20;;;1.95;;
71806;SDS011;59655;42.590;23.364;2023-08-08T03:36:57;2.88;;;1.98;;
71806;SDS011;59655;42.590;23.364;2023-08-08T03:39:24;3.08;;;2.17;;
71806;SDS011;59655;42.590;23.364;2023-08-08T03:41:49;3.50;;;2.22;;
71806;SDS011;59655;42.590;23.364;2023-08-08T03:44:14;4.55;;;2.40;;
71806;SDS011;59655;42.590;23.364;2023-08-08T03:46:40;4.03;;;2.13;;
71806;SDS011;59655;42.590;23.364;2023-08-08T03:49:05;3.25;;;2.38;;
71806;SDS011;59655;42.590;23.364;2023-08-08T03:51:30;2.80;;;2.22;;
71806;SDS011;59655;42.590;23.364;2023-08-08T03:53:56;3.33;;;2.30;;
71806;SDS011;59655;42.590;23.364;2023-08-08T03:56:21;3.15;;;2.33;;
71806;SDS011;59655;42.590;23.364;2023-08-08T03:58:47;3.17;;;2.28;;
71806;SDS011;59655;42.590;23.364;2023-08-08T04:01:12;4.03;;;2.72;;
71806;SDS011;59655;42.590;23.364;2023-08-08T04:03:37;3.20;;;2.33;;
71806;SDS011;59655;42.590;23.364;2023-08-08T04:06:03;5.95;;;2.33;;
71806;SDS011;59655;42.590;23.364;2023-08-08T04:08:28;4.38;;;2.15;;
71806;SDS011;59655;42.590;23.364;2023-08-08T04:10:54;3.55;;;2.15;;
71806;SDS011;59655;42.590;23.364;2023-08-08T04:13:20;5.53;;;2.40;;
71806;SDS011;59655;42.590;23.364;2023-08-08T04:15:45;5.43;;;2.30;;
71806;SDS011;59655;42.590;23.364;2023-08-08T04:18:13;9.20;;;2.60;;
71806;SDS011;59655;42.590;23.364;2023-08-08T04:20:41;3.10;;;2.25;;
71806;SDS011;59655;42.590;23.364;2023-08-08T04:23:06;3.58;;;2.38;;
71806;SDS011;59655;42.590;23.364;2023-08-08T04:25:31;3.35;;;2.13;;
71806;SDS011;59655;42.590;23.364;2023-08-08T04:27:57;3.25;;;2.13;;
71806;SDS011;59655;42.590;23.364;2023-08-08T04:30:22;3.15;;;2.45;;
71806;SDS011;59655;42.590;23.364;2023-08-08T04:32:48;4.38;;;2.22;;
71806;SDS011;59655;42.590;23.364;2023-08-08T04:35:14;3.58;;;2.78;;
71806;SDS011;59655;42.590;23.364;2023-08-08T04:37:39;4.85;;;2.65;;
71806;SDS011;59655;42.590;23.364;2023-08-08T04:40:05;4.32;;;2.53;;
71806;SDS011;59655;42.590;23.364;2023-08-08T04:42:33;3.90;;;2.45;;
71806;SDS011;59655;42.590;23.364;2023-08-08T04:44:58;4.43;;;2.78;;
71806;SDS011;59655;42.590;23.364;2023-08-08T04:47:24;3.30;;;2.33;;
71806;SDS011;59655;42.590;23.364;2023-08-08T04:49:49;5.07;;;2.40;;
71806;SDS011;59655;42.590;23.364;2023-08-08T04:52:15;3.40;;;2.33;;
71806;SDS011;59655;42.590;23.364;2023-08-08T04:54:40;6.43;;;2.97;;
71806;SDS011;59655;42.590;23.364;2023-08-08T04:57:06;3.33;;;2.55;;
71806;SDS011;59655;42.590;23.364;2023-08-08T04:59:31;3.75;;;2.78;;
71806;SDS011;59655;42.590;23.364;2023-08-08T05:01:57;3.15;;;2.28;;
71806;SDS011;59655;42.590;23.364;2023-08-08T05:04:22;4.18;;;2.70;;
71806;SDS011;59655;42.590;23.364;2023-08-08T05:06:48;3.78;;;3.20;;
71806;SDS011;59655;42.590;23.364;2023-08-08T05:09:13;4.40;;;3.10;;
71806;SDS011;59655;42.590;23.364;2023-08-08T05:11:39;3.72;;;2.28;;
71806;SDS011;59655;42.590;23.364;2023-08-08T05:14:04;3.70;;;2.80;;
71806;SDS011;59655;42.590;23.364;2023-08-08T05:16:29;3.70;;;2.90;;
71806;SDS011;59655;42.590;23.364;2023-08-08T05:18:55;4.22;;;2.55;;
71806;SDS011;59655;42.590;23.364;2023-08-08T05:21:21;7.20;;;3.17;;
71806;SDS011;59655;42.590;23.364;2023-08-08T05:23:46;4.55;;;2.72;;
71806;SDS011;59655;42.590;23.364;2023-08-08T05:26:13;4.80;;;3.15;;
71806;SDS011;59655;42.590;23.364;2023-08-08T05:28:40;4.45;;;2.40;;
71806;SDS011;59655;42.590;23.364;2023-08-08T05:31:05;2.90;;;2.15;;
71806;SDS011;59655;42.590;23.364;2023-08-08T05:33:31;4.78;;;2.30;;
71806;SDS011;59655;42.590;23.364;2023-08-08T05:35:56;2.83;;;1.77;;
71806;SDS011;59655;42.590;23.364;2023-08-08T05:38:21;3.75;;;1.85;;
71806;SDS011;59655;42.590;23.364;2023-08-08T05:40:47;3.55;;;2.00;;
71806;SDS011;59655;42.590;23.364;2023-08-08T05:43:12;3.72;;;2.53;;
71806;SDS011;59655;42.590;23.364;2023-08-08T05:45:42;4.53;;;2.10;;
71806;SDS011;59655;42.590;23.364;2023-08-08T05:48:07;3.22;;;2.20;;
71806;SDS011;59655;42.590;23.364;2023-08-08T05:50:36;2.97;;;2.08;;
71806;SDS011;59655;42.590;23.364;2023-08-08T05:53:02;3.42;;;2.33;;
71806;SDS011;59655;42.590;23.364;2023-08-08T05:55:27;2.83;;;1.98;;
71806;SDS011;59655;42.590;23.364;2023-08-08T05:57:53;2.60;;;1.92;;
71806;SDS011;59655;42.590;23.364;2023-08-08T06:00:19;3.17;;;2.00;;
71806;SDS011;59655;42.590;23.364;2023-08-08T06:02:45;2.80;;;2.20;;
71806;SDS011;59655;42.590;23.364;2023-08-08T06:05:11;4.45;;;2.50;;
71806;SDS011;59655;42.590;23.364;2023-08-08T06:07:37;3.20;;;2.75;;
71806;SDS011;59655;42.590;23.364;2023-08-08T06:10:02;5.60;;;3.05;;
71806;SDS011;59655;42.590;23.364;2023-08-08T06:12:28;4.65;;;3.20;;
71806;SDS011;59655;42.590;23.364;2023-08-08T06:14:53;3.70;;;3.00;;
71806;SDS011;59655;42.590;23.364;2023-08-08T06:17:19;5.70;;;3.25;;
71806;SDS011;59655;42.590;23.364;2023-08-08T06:19:45;3.65;;;2.97;;
71806;SDS011;59655;42.590;23.364;2023-08-08T06:22:11;4.20;;;3.40;;
71806;SDS011;59655;42.590;23.364;2023-08-08T06:24:36;4.82;;;3.05;;
71806;SDS011;59655;42.590;23.364;2023-08-08T06:27:02;5.35;;;3.10;;
71806;SDS011;59655;42.590;23.364;2023-08-08T06:29:28;3.38;;;2.80;;
71806;SDS011;59655;42.590;23.364;2023-08-08T06:31:53;3.40;;;2.58;;
71806;SDS011;59655;42.590;23.364;2023-08-08T06:34:18;3.80;;;2.33;;
71806;SDS011;59655;42.590;23.364;2023-08-08T06:36:44;3.28;;;2.67;;
71806;SDS011;59655;42.590;23.364;2023-08-08T06:39:11;3.67;;;2.97;;
71806;SDS011;59655;42.590;23.364;2023-08-08T06:41:37;2.97;;;2.10;;
71806;SDS011;59655;42.590;23.364;2023-08-08T06:44:03;3.97;;;1.73;;
71806;SDS011;59655;42.590;23.364;2023-08-08T06:46:29;2.42;;;1.55;;
71806;SDS011;59655;42.590;23.364;2023-08-08T06:48:55;3.55;;;1.73;;
71806;SDS011;59655;42.590;23.364;2023-08-08T06:51:24;2.20;;;1.65;;
71806;SDS011;59655;42.590;23.364;2023-08-08T06:53:50;5.85;;;1.70;;
71806;SDS011;59655;42.590;23.364;2023-08-08T06:56:15;4.40;;;1.45;;
71806;SDS011;59655;42.590;23.364;2023-08-08T06:58:41;5.80;;;1.70;;
71806;SDS011;59655;42.590;23.364;2023-08-08T07:01:06;1.92;;;1.20;;
71806;SDS011;59655;42.590;23.364;2023-08-08T07:03:31;2.55;;;1.77;;
71806;SDS011;59655;42.590;23.364;2023-08-08T07:05:57;2.90;;;1.60;;
71806;SDS011;59655;42.590;23.364;2023-08-08T07:08:22;2.38;;;1.50;;
71806;SDS011;59655;42.590;23.364;2023-08-08T07:10:48;2.22;;;1.42;;
71806;SDS011;59655;42.590;23.364;2023-08-08T07:13:14;2.88;;;1.75;;
71806;SDS011;59655;42.590;23.364;2023-08-08T07:15:40;2.40;;;1.70;;
71806;SDS011;59655;42.590;23.364;2023-08-08T07:18:06;2.70;;;1.65;;
71806;SDS011;59655;42.590;23.364;2023-08-08T07:20:31;3.97;;;1.60;;
71806;SDS011;59655;42.590;23.364;2023-08-08T07:22:58;2.80;;;1.50;;
71806;SDS011;59655;42.590;23.364;2023-08-08T07:25:25;1.65;;;1.10;;
71806;SDS011;59655;42.590;23.364;2023-08-08T07:27:50;4.97;;;1.40;;
71806;SDS011;59655;42.590;23.364;2023-08-08T07:30:16;3.65;;;1.40;;
71806;SDS011;59655;42.590;23.364;2023-08-08T07:32:41;2.20;;;1.30;;
71806;SDS011;59655;42.590;23.364;2023-08-08T07:35:07;2.63;;;1.75;;
71806;SDS011;59655;42.590;23.364;2023-08-08T07:37:33;2.72;;;1.90;;
71806;SDS011;59655;42.590;23.364;2023-08-08T07:39:59;3.53;;;1.90;;
71806;SDS011;59655;42.590;23.364;2023-08-08T07:42:25;3.67;;;1.80;;
71806;SDS011;59655;42.590;23.364;2023-08-08T07:44:51;4.72;;;1.83;;
71806;SDS011;59655;42.590;23.364;2023-08-08T07:47:16;4.38;;;1.77;;
71806;SDS011;59655;42.590;23.364;2023-08-08T07:49:42;4.13;;;1.52;;
71806;SDS011;59655;42.590;23.364;2023-08-08T07:52:07;3.10;;;1.65;;
71806;SDS011;59655;42.590;23.364;2023-08-08T07:54:33;2.53;;;1.38;;
71806;SDS011;59655;42.590;23.364;2023-08-08T07:56:59;1.73;;;1.00;;
71806;SDS011;59655;42.590;23.364;2023-08-08T07:59:25;3.83;;;1.23;;
71806;SDS011;59655;42.590;23.364;2023-08-08T08:01:50;1.02;;;0.73;;
71806;SDS011;59655;42.590;23.364;2023-08-08T08:04:16;2.17;;;1.05;;
71806;SDS011;59655;42.590;23.364;2023-08-08T08:06:41;2.30;;;1.10;;
71806;SDS011;59655;42.590;23.364;2023-08-08T08:09:06;1.90;;;1.15;;
71806;SDS011;59655;42.590;23.364;2023-08-08T08:11:33;2.03;;;1.13;;
71806;SDS011;59655;42.590;23.364;2023-08-08T08:13:58;2.85;;;1.20;;
71806;SDS011;59655;42.590;23.364;2023-08-08T08:16:23;3.13;;;1.27;;
71806;SDS011;59655;42.590;23.364;2023-08-08T08:18:49;1.83;;;1.08;;
71806;SDS011;59655;42.590;23.364;2023-08-08T08:21:14;1.75;;;1.10;;
71806;SDS011;59655;42.590;23.364;2023-08-08T08:23:42;2.75;;;1.20;;
71806;SDS011;59655;42.590;23.364;2023-08-08T08:26:08;3.22;;;1.27;;
71806;SDS011;59655;42.590;23.364;2023-08-08T08:28:33;1.60;;;1.00;;
71806;SDS011;59655;42.590;23.364;2023-08-08T08:31:03;2.60;;;1.30;;
71806;SDS011;59655;42.590;23.364;2023-08-08T08:33:32;6.18;;;1.60;;
71806;SDS011;59655;42.590;23.364;2023-08-08T08:35:58;1.90;;;1.13;;
71806;SDS011;59655;42.590;23.364;2023-08-08T08:38:23;1.90;;;1.10;;
71806;SDS011;59655;42.590;23.364;2023-08-08T08:40:49;2.95;;;1.20;;
71806;SDS011;59655;42.590;23.364;2023-08-08T08:43:18;2.45;;;1.50;;
71806;SDS011;59655;42.590;23.364;2023-08-08T08:45:44;1.83;;;1.20;;
71806;SDS011;59655;42.590;23.364;2023-08-08T08:48:15;2.20;;;1.40;;
71806;SDS011;59655;42.590;23.364;2023-08-08T08:50:41;2.40;;;1.40;;
71806;SDS011;59655;42.590;23.364;2023-08-08T08:53:08;2.72;;;1.42;;
71806;SDS011;59655;42.590;23.364;2023-08-08T08:55:35;1.90;;;1.38;;
71806;SDS011;59655;42.590;23.364;2023-08-08T08:58:00;3.72;;;1.83;;
71806;SDS011;59655;42.590;23.364;2023-08-08T09:00:27;2.72;;;1.60;;
71806;SDS011;59655;42.590;23.364;2023-08-08T09:02:52;2.28;;;1.27;;
71806;SDS011;59655;42.590;23.364;2023-08-08T09:05:20;4.40;;;1.52;;
71806;SDS011;59655;42.590;23.364;2023-08-08T09:07:49;2.70;;;1.60;;
71806;SDS011;59655;42.590;23.364;2023-08-08T09:10:15;3.58;;;2.10;;
71806;SDS011;59655;42.590;23.364;2023-08-08T09:12:41;3.35;;;1.70;;
71806;SDS011;59655;42.590;23.364;2023-08-08T09:15:06;2.95;;;1.65;;
71806;SDS011;59655;42.590;23.364;2023-08-08T09:17:32;4.72;;;1.95;;
71806;SDS011;59655;42.590;23.364;2023-08-08T09:19:58;4.00;;;2.03;;
71806;SDS011;59655;42.590;23.364;2023-08-08T09:22:23;4.93;;;2.10;;
71806;SDS011;59655;42.590;23.364;2023-08-08T09:24:49;2.95;;;1.80;;
71806;SDS011;59655;42.590;23.364;2023-08-08T09:27:15;3.35;;;1.63;;
71806;SDS011;59655;42.590;23.364;2023-08-08T09:29:41;2.80;;;1.85;;
71806;SDS011;59655;42.590;23.364;2023-08-08T09:32:06;3.25;;;1.70;;
71806;SDS011;59655;42.590;23.364;2023-08-08T09:34:32;4.47;;;1.67;;
71806;SDS011;59655;42.590;23.364;2023-08-08T09:36:59;5.55;;;1.77;;
71806;SDS011;59655;42.590;23.364;2023-08-08T09:39:28;2.95;;;1.58;;
71806;SDS011;59655;42.590;23.364;2023-08-08T09:41:55;3.40;;;1.58;;
71806;SDS011;59655;42.590;23.364;2023-08-08T09:44:24;3.50;;;1.77;;
71806;SDS011;59655;42.590;23.364;2023-08-08T09:46:51;3.67;;;2.15;;
71806;SDS011;59655;42.590;23.364;2023-08-08T09:49:17;3.65;;;1.77;;
71806;SDS011;59655;42.590;23.364;2023-08-08T09:51:43;3.33;;;1.98;;
71806;SDS011;59655;42.590;23.364;2023-08-08T09:54:08;2.88;;;2.00;;
71806;SDS011;59655;42.590;23.364;2023-08-08T09:56:35;2.95;;;1.85;;
71806;SDS011;59655;42.590;23.364;2023-08-08T09:59:01;3.13;;;1.83;;
71806;SDS011;59655;42.590;23.364;2023-08-08T10:01:27;2.65;;;1.83;;
71806;SDS011;59655;42.590;23.364;2023-08-08T10:03:53;5.22;;;2.00;;
71806;SDS011;59655;42.590;23.364;2023-08-08T10:06:19;2.80;;;1.92;;
71806;SDS011;59655;42.590;23.364;2023-08-08T10:08:45;2.60;;;2.08;;
71806;SDS011;59655;42.590;23.364;2023-08-08T10:11:10;4.00;;;2.00;;
71806;SDS011;59655;42.590;23.364;2023-08-08T10:13:37;3.22;;;1.90;;
71806;SDS011;59655;42.590;23.364;2023-08-08T10:16:04;2.78;;;1.85;;
71806;SDS011;59655;42.590;23.364;2023-08-08T10:18:32;2.88;;;2.00;;
71806;SDS011;59655;42.590;23.364;2023-08-08T10:20:58;3.25;;;2.00;;
71806;SDS011;59655;42.590;23.364;2023-08-08T10:23:24;2.60;;;1.90;;
71806;SDS011;59655;42.590;23.364;2023-08-08T10:25:50;3.13;;;2.03;;
71806;SDS011;59655;42.590;23.364;2023-08-08T10:28:19;2.90;;;1.95;;
71806;SDS011;59655;42.590;23.364;2023-08-08T10:30:46;3.72;;;1.70;;
71806;SDS011;59655;42.590;23.364;2023-08-08T10:33:19;3.03;;;1.90;;
71806;SDS011;59655;42.590;23.364;2023-08-08T10:38:41;2.33;;;1.92;;
71806;SDS011;59655;42.590;23.364;2023-08-08T10:41:09;2.10;;;1.67;;
71806;SDS011;59655;42.590;23.364;2023-08-08T10:43:35;3.17;;;2.05;;
71806;SDS011;59655;42.590;23.364;2023-08-08T10:46:02;2.40;;;1.88;;
71806;SDS011;59655;42.590;23.364;2023-08-08T10:48:28;3.15;;;1.83;;
71806;SDS011;59655;42.590;23.364;2023-08-08T10:50:54;2.75;;;1.70;;
71806;SDS011;59655;42.590;23.364;2023-08-08T10:53:22;3.72;;;1.52;;
71806;SDS011;59655;42.590;23.364;2023-08-08T10:55:56;2.80;;;1.67;;
71806;SDS011;59655;42.590;23.364;2023-08-08T10:58:33;2.70;;;1.80;;
71806;SDS011;59655;42.590;23.364;2023-08-08T11:01:00;2.35;;;1.30;;
71806;SDS011;59655;42.590;23.364;2023-08-08T11:03:26;3.58;;;1.25;;
71806;SDS011;59655;42.590;23.364;2023-08-08T11:05:52;2.17;;;1.50;;
71806;SDS011;59655;42.590;23.364;2023-08-08T11:08:17;4.07;;;1.60;;
71806;SDS011;59655;42.590;23.364;2023-08-08T11:10:43;2.60;;;1.52;;
71806;SDS011;59655;42.590;23.364;2023-08-08T11:13:09;4.40;;;1.52;;
71806;SDS011;59655;42.590;23.364;2023-08-08T11:15:35;2.08;;;1.40;;
71806;SDS011;59655;42.590;23.364;2023-08-08T11:18:01;2.33;;;1.40;;
71806;SDS011;59655;42.590;23.364;2023-08-08T11:20:32;2.40;;;1.40;;
71806;SDS011;59655;42.590;23.364;2023-08-08T11:22:58;5.47;;;1.40;;
71806;SDS011;59655;42.590;23.364;2023-08-08T11:25:27;3.55;;;1.30;;
71806;SDS011;59655;42.590;23.364;2023-08-08T11:27:55;1.80;;;1.30;;
71806;SDS011;59655;42.590;23.364;2023-08-08T11:30:21;2.13;;;1.20;;
71806;SDS011;59655;42.590;23.364;2023-08-08T11:32:48;2.47;;;1.30;;
71806;SDS011;59655;42.590;23.364;2023-08-08T11:35:20;3.28;;;1.23;;
71806;SDS011;59655;42.590;23.364;2023-08-08T11:37:47;2.00;;;1.40;;
71806;SDS011;59655;42.590;23.364;2023-08-08T11:40:14;3.15;;;1.23;;
71806;SDS011;59655;42.590;23.364;2023-08-08T11:42:41;2.40;;;1.20;;
71806;SDS011;59655;42.590;23.364;2023-08-08T11:45:10;3.63;;;1.10;;
71806;SDS011;59655;42.590;23.364;2023-08-08T11:47:38;2.55;;;1.40;;
71806;SDS011;59655;42.590;23.364;2023-08-08T11:50:05;2.22;;;1.38;;
71806;SDS011;59655;42.590;23.364;2023-08-08T11:52:32;1.45;;;0.95;;
71806;SDS011;59655;42.590;23.364;2023-08-08T11:54:58;2.65;;;1.02;;
71806;SDS011;59655;42.590;23.364;2023-08-08T11:57:25;2.15;;;1.20;;
71806;SDS011;59655;42.590;23.364;2023-08-08T11:59:54;1.85;;;1.10;;
71806;SDS011;59655;42.590;23.364;2023-08-08T12:02:20;1.67;;;1.13;;
71806;SDS011;59655;42.590;23.364;2023-08-08T12:04:47;2.20;;;1.30;;
71806;SDS011;59655;42.590;23.364;2023-08-08T12:07:12;3.17;;;1.42;;
71806;SDS011;59655;42.590;23.364;2023-08-08T12:09:38;2.58;;;1.50;;
71806;SDS011;59655;42.590;23.364;2023-08-08T12:12:04;2.13;;;1.40;;
71806;SDS011;59655;42.590;23.364;2023-08-08T12:14:36;4.57;;;2.00;;
71806;SDS011;59655;42.590;23.364;2023-08-08T12:19:30;2.40;;;1.23;;
71806;SDS011;59655;42.590;23.364;2023-08-08T12:21:55;3.75;;;1.40;;
71806;SDS011;59655;42.590;23.364;2023-08-08T12:24:21;2.47;;;1.60;;
71806;SDS011;59655;42.590;23.364;2023-08-08T12:26:46;2.70;;;1.60;;
71806;SDS011;59655;42.590;23.364;2023-08-08T12:29:12;2.50;;;1.40;;
71806;SDS011;59655;42.590;23.364;2023-08-08T12:31:38;3.83;;;2.17;;
71806;SDS011;59655;42.590;23.364;2023-08-08T12:34:04;3.30;;;1.42;;
71806;SDS011;59655;42.590;23.364;2023-08-08T12:36:30;2.08;;;1.40;;
71806;SDS011;59655;42.590;23.364;2023-08-08T12:38:55;2.28;;;1.38;;
71806;SDS011;59655;42.590;23.364;2023-08-08T12:41:22;2.30;;;1.30;;
71806;SDS011;59655;42.590;23.364;2023-08-08T12:43:48;4.55;;;1.52;;
71806;SDS011;59655;42.590;23.364;2023-08-08T12:46:14;1.73;;;1.20;;
71806;SDS011;59655;42.590;23.364;2023-08-08T12:48:40;1.83;;;1.13;;
71806;SDS011;59655;42.590;23.364;2023-08-08T12:51:05;3.00;;;1.42;;
71806;SDS011;59655;42.590;23.364;2023-08-08T12:53:33;1.92;;;1.30;;
71806;SDS011;59655;42.590;23.364;2023-08-08T12:55:59;1.58;;;1.13;;
71806;SDS011;59655;42.590;23.364;2023-08-08T12:58:25;2.38;;;1.20;;
71806;SDS011;59655;42.590;23.364;2023-08-08T13:00:50;1.90;;;1.33;;
71806;SDS011;59655;42.590;23.364;2023-08-08T13:03:15;2.88;;;1.52;;
71806;SDS011;59655;42.590;23.364;2023-08-08T13:05:41;3.13;;;1.38;;
71806;SDS011;59655;42.590;23.364;2023-08-08T13:08:06;2.38;;;1.30;;
71806;SDS011;59655;42.590;23.364;2023-08-08T13:10:31;2.00;;;1.30;;
71806;SDS011;59655;42.590;23.364;2023-08-08T13:12:57;1.42;;;1.10;;
71806;SDS011;59655;42.590;23.364;2023-08-08T13:15:23;3.83;;;1.40;;
71806;SDS011;59655;42.590;23.364;2023-08-08T13:17:48;2.13;;;1.10;;
71806;SDS011;59655;42.590;23.364;2023-08-08T13:20:14;2.58;;;1.27;;
71806;SDS011;59655;42.590;23.364;2023-08-08T13:22:39;3.08;;;1.20;;
71806;SDS011;59655;42.590;23.364;2023-08-08T13:25:06;2.55;;;1.02;;
71806;SDS011;59655;42.590;23.364;2023-08-08T13:27:31;2.30;;;1.33;;
71806;SDS011;59655;42.590;23.364;2023-08-08T13:29:57;1.85;;;1.38;;
71806;SDS011;59655;42.590;23.364;2023-08-08T13:32:23;2.75;;;1.33;;
71806;SDS011;59655;42.590;23.364;2023-08-08T13:34:48;2.53;;;1.23;;
71806;SDS011;59655;42.590;23.364;2023-08-08T13:37:14;4.20;;;1.40;;
71806;SDS011;59655;42.590;23.364;2023-08-08T13:39:40;1.48;;;1.02;;
71806;SDS011;59655;42.590;23.364;2023-08-08T13:42:06;3.17;;;1.23;;
71806;SDS011;59655;42.590;23.364;2023-08-08T13:44:31;3.55;;;1.17;;
71806;SDS011;59655;42.590;23.364;2023-08-08T13:46:57;4.05;;;1.40;;
71806;SDS011;59655;42.590;23.364;2023-08-08T13:49:23;2.80;;;1.30;;
71806;SDS011;59655;42.590;23.364;2023-08-08T13:51:51;2.25;;;1.25;;
71806;SDS011;59655;42.590;23.364;2023-08-08T13:54:17;3.92;;;1.42;;
71806;SDS011;59655;42.590;23.364;2023-08-08T13:56:43;2.63;;;1.33;;
71806;SDS011;59655;42.590;23.364;2023-08-08T13:59:08;1.65;;;1.10;;
71806;SDS011;59655;42.590;23.364;2023-08-08T14:01:33;2.60;;;1.30;;
71806;SDS011;59655;42.590;23.364;2023-08-08T14:03:59;1.77;;;1.17;;
71806;SDS011;59655;42.590;23.364;2023-08-08T14:06:24;1.80;;;1.23;;
71806;SDS011;59655;42.590;23.364;2023-08-08T14:08:50;1.58;;;1.15;;
71806;SDS011;59655;42.590;23.364;2023-08-08T14:11:17;3.08;;;1.13;;
71806;SDS011;59655;42.590;23.364;2023-08-08T14:13:42;1.33;;;1.10;;
71806;SDS011;59655;42.590;23.364;2023-08-08T14:16:08;4.20;;;1.30;;
71806;SDS011;59655;42.590;23.364;2023-08-08T14:18:33;2.97;;;1.20;;
71806;SDS011;59655;42.590;23.364;2023-08-08T14:20:58;3.33;;;1.73;;
71806;SDS011;59655;42.590;23.364;2023-08-08T14:23:25;2.15;;;1.48;;
71806;SDS011;59655;42.590;23.364;2023-08-08T14:25:51;1.77;;;1.10;;
71806;SDS011;59655;42.590;23.364;2023-08-08T14:28:16;3.15;;;1.40;;
71806;SDS011;59655;42.590;23.364;2023-08-08T14:30:42;3.13;;;1.40;;
71806;SDS011;59655;42.590;23.364;2023-08-08T14:33:07;3.22;;;1.42;;
71806;SDS011;59655;42.590;23.364;2023-08-08T14:35:33;2.42;;;1.40;;
71806;SDS011;59655;42.590;23.364;2023-08-08T14:37:59;2.95;;;1.60;;
71806;SDS011;59655;42.590;23.364;2023-08-08T14:40:24;5.13;;;1.70;;